sensor_id;sensor_type;location;lat;lon;timestamp;P1;durP1;ratioP1;P2;durP2;ratioP2
44139;SDS011;29803;51.048;4.686;2022-08-19T00:00:45;31.73;;;20.52;;
44139;SDS011;29803;51.048;4.686;2022-08-19T00:03:15;33.40;;;20.10;;
44139;SDS011;29803;51.048;4.686;2022-08-19T00:05:46;37.30;;;19.98;;
44139;SDS011;29803;51.048;4.686;2022-08-19T00:08:17;29.25;;;20.05;;
44139;SDS011;29803;51.048;4.686;2022-08-19T00:10:47;32.25;;;19.73;;
44139;SDS011;29803;51.048;4.686;2022-08-19T00:13:17;32.95;;;21.52;;
44139;SDS011;29803;51.048;4.686;2022-08-19T00:15:48;43.05;;;25.10;;
44139;SDS011;29803;51.048;4.686;2022-08-19T00:18:19;45.92;;;27.27;;
44139;SDS011;29803;51.048;4.686;2022-08-19T00:20:49;52.13;;;30.00;;
44139;SDS011;29803;51.048;4.686;2022-08-19T00:23:20;52.05;;;30.30;;
44139;SDS011;29803;51.048;4.686;2022-08-19T00:25:50;54.55;;;30.63;;
44139;SDS011;29803;51.048;4.686;2022-08-19T00:28:22;50.83;;;31.27;;
44139;SDS011;29803;51.048;4.686;2022-08-19T00:30:52;45.78;;;26.70;;
44139;SDS011;29803;51.048;4.686;2022-08-19T00:33:23;43.85;;;25.85;;
44139;SDS011;29803;51.048;4.686;2022-08-19T00:35:54;39.70;;;24.30;;
44139;SDS011;29803;51.048;4.686;2022-08-19T00:38:25;45.05;;;26.45;;
44139;SDS011;29803;51.048;4.686;2022-08-19T00:40:56;37.45;;;23.50;;
44139;SDS011;29803;51.048;4.686;2022-08-19T00:43:27;41.50;;;26.05;;
44139;SDS011;29803;51.048;4.686;2022-08-19T00:45:58;42.88;;;24.45;;
44139;SDS011;29803;51.048;4.686;2022-08-19T00:48:28;46.67;;;25.90;;
44139;SDS011;29803;51.048;4.686;2022-08-19T00:50:59;36.03;;;22.58;;
44139;SDS011;29803;51.048;4.686;2022-08-19T00:53:31;40.67;;;25.10;;
44139;SDS011;29803;51.048;4.686;2022-08-19T00:56:04;48.50;;;26.83;;
44139;SDS011;29803;51.048;4.686;2022-08-19T00:58:36;43.55;;;26.48;;
44139;SDS011;29803;51.048;4.686;2022-08-19T01:01:07;44.63;;;26.70;;
44139;SDS011;29803;51.048;4.686;2022-08-19T01:03:37;42.58;;;25.35;;
44139;SDS011;29803;51.048;4.686;2022-08-19T01:06:08;49.25;;;27.17;;
44139;SDS011;29803;51.048;4.686;2022-08-19T01:08:45;52.58;;;27.95;;
44139;SDS011;29803;51.048;4.686;2022-08-19T01:11:16;52.72;;;28.50;;
44139;SDS011;29803;51.048;4.686;2022-08-19T01:13:47;51.22;;;28.80;;
44139;SDS011;29803;51.048;4.686;2022-08-19T01:16:19;56.25;;;28.73;;
44139;SDS011;29803;51.048;4.686;2022-08-19T01:18:53;50.92;;;28.40;;
44139;SDS011;29803;51.048;4.686;2022-08-19T01:21:45;56.78;;;30.67;;
44139;SDS011;29803;51.048;4.686;2022-08-19T01:24:39;54.10;;;29.63;;
44139;SDS011;29803;51.048;4.686;2022-08-19T01:27:18;59.17;;;30.58;;
44139;SDS011;29803;51.048;4.686;2022-08-19T01:30:04;62.78;;;32.33;;
44139;SDS011;29803;51.048;4.686;2022-08-19T01:32:35;55.15;;;29.10;;
44139;SDS011;29803;51.048;4.686;2022-08-19T01:35:06;65.35;;;31.25;;
44139;SDS011;29803;51.048;4.686;2022-08-19T01:37:49;62.78;;;32.70;;
44139;SDS011;29803;51.048;4.686;2022-08-19T01:40:24;63.00;;;32.80;;
44139;SDS011;29803;51.048;4.686;2022-08-19T01:42:57;61.40;;;31.55;;
44139;SDS011;29803;51.048;4.686;2022-08-19T01:45:30;65.32;;;32.70;;
44139;SDS011;29803;51.048;4.686;2022-08-19T01:48:03;65.72;;;33.72;;
44139;SDS011;29803;51.048;4.686;2022-08-19T01:50:34;68.47;;;34.25;;
44139;SDS011;29803;51.048;4.686;2022-08-19T01:53:06;75.00;;;36.58;;
44139;SDS011;29803;51.048;4.686;2022-08-19T01:55:40;75.47;;;36.40;;
44139;SDS011;29803;51.048;4.686;2022-08-19T01:58:15;73.82;;;35.67;;
44139;SDS011;29803;51.048;4.686;2022-08-19T02:00:51;70.00;;;34.30;;
44139;SDS011;29803;51.048;4.686;2022-08-19T02:03:21;80.00;;;38.70;;
44139;SDS011;29803;51.048;4.686;2022-08-19T02:05:54;82.78;;;38.30;;
44139;SDS011;29803;51.048;4.686;2022-08-19T02:08:26;89.18;;;39.55;;
44139;SDS011;29803;51.048;4.686;2022-08-19T02:10:58;90.45;;;40.42;;
44139;SDS011;29803;51.048;4.686;2022-08-19T02:13:29;93.13;;;41.33;;
44139;SDS011;29803;51.048;4.686;2022-08-19T02:16:00;82.65;;;38.08;;
44139;SDS011;29803;51.048;4.686;2022-08-19T02:18:30;82.63;;;37.92;;
44139;SDS011;29803;51.048;4.686;2022-08-19T02:21:01;78.63;;;37.08;;
44139;SDS011;29803;51.048;4.686;2022-08-19T02:23:31;87.25;;;38.70;;
44139;SDS011;29803;51.048;4.686;2022-08-19T02:26:02;84.78;;;39.38;;
44139;SDS011;29803;51.048;4.686;2022-08-19T02:28:32;90.97;;;39.05;;
44139;SDS011;29803;51.048;4.686;2022-08-19T02:31:07;103.85;;;44.92;;
44139;SDS011;29803;51.048;4.686;2022-08-19T02:33:40;102.97;;;42.42;;
44139;SDS011;29803;51.048;4.686;2022-08-19T02:36:12;102.47;;;43.15;;
44139;SDS011;29803;51.048;4.686;2022-08-19T02:38:44;105.43;;;42.63;;
44139;SDS011;29803;51.048;4.686;2022-08-19T02:41:17;107.25;;;42.67;;
44139;SDS011;29803;51.048;4.686;2022-08-19T02:43:49;113.85;;;42.60;;
44139;SDS011;29803;51.048;4.686;2022-08-19T02:46:21;104.18;;;44.60;;
44139;SDS011;29803;51.048;4.686;2022-08-19T02:48:55;97.22;;;39.63;;
44139;SDS011;29803;51.048;4.686;2022-08-19T02:54:16;104.80;;;44.60;;
44139;SDS011;29803;51.048;4.686;2022-08-19T02:56:46;120.97;;;45.13;;
44139;SDS011;29803;51.048;4.686;2022-08-19T02:59:17;117.05;;;43.28;;
44139;SDS011;29803;51.048;4.686;2022-08-19T03:01:47;101.20;;;40.80;;
44139;SDS011;29803;51.048;4.686;2022-08-19T03:04:18;102.45;;;40.22;;
44139;SDS011;29803;51.048;4.686;2022-08-19T03:06:49;117.50;;;42.40;;
44139;SDS011;29803;51.048;4.686;2022-08-19T03:09:20;105.55;;;40.45;;
44139;SDS011;29803;51.048;4.686;2022-08-19T03:11:51;100.03;;;39.22;;
44139;SDS011;29803;51.048;4.686;2022-08-19T03:14:21;109.32;;;42.78;;
44139;SDS011;29803;51.048;4.686;2022-08-19T03:16:53;107.05;;;37.85;;
44139;SDS011;29803;51.048;4.686;2022-08-19T03:19:23;106.75;;;40.92;;
44139;SDS011;29803;51.048;4.686;2022-08-19T03:21:54;120.93;;;44.42;;
44139;SDS011;29803;51.048;4.686;2022-08-19T03:24:25;99.45;;;36.55;;
44139;SDS011;29803;51.048;4.686;2022-08-19T03:26:56;87.35;;;36.25;;
44139;SDS011;29803;51.048;4.686;2022-08-19T03:29:28;81.22;;;34.22;;
44139;SDS011;29803;51.048;4.686;2022-08-19T03:32:03;111.82;;;40.97;;
44139;SDS011;29803;51.048;4.686;2022-08-19T03:34:34;114.55;;;44.13;;
44139;SDS011;29803;51.048;4.686;2022-08-19T03:37:08;124.45;;;47.50;;
44139;SDS011;29803;51.048;4.686;2022-08-19T03:42:12;129.23;;;46.13;;
44139;SDS011;29803;51.048;4.686;2022-08-19T03:44:43;95.90;;;38.15;;
44139;SDS011;29803;51.048;4.686;2022-08-19T03:47:14;96.03;;;38.35;;
44139;SDS011;29803;51.048;4.686;2022-08-19T03:49:46;100.50;;;37.17;;
44139;SDS011;29803;51.048;4.686;2022-08-19T03:52:17;98.63;;;37.55;;
44139;SDS011;29803;51.048;4.686;2022-08-19T03:54:47;90.47;;;36.85;;
44139;SDS011;29803;51.048;4.686;2022-08-19T03:57:18;112.22;;;42.00;;
44139;SDS011;29803;51.048;4.686;2022-08-19T03:59:48;111.47;;;40.72;;
44139;SDS011;29803;51.048;4.686;2022-08-19T04:02:19;124.03;;;45.15;;
44139;SDS011;29803;51.048;4.686;2022-08-19T04:04:50;116.95;;;44.33;;
44139;SDS011;29803;51.048;4.686;2022-08-19T04:07:23;114.05;;;43.38;;
44139;SDS011;29803;51.048;4.686;2022-08-19T04:09:54;106.03;;;40.08;;
44139;SDS011;29803;51.048;4.686;2022-08-19T04:12:25;110.13;;;41.00;;
44139;SDS011;29803;51.048;4.686;2022-08-19T04:14:55;121.25;;;44.25;;
44139;SDS011;29803;51.048;4.686;2022-08-19T04:17:26;139.40;;;49.58;;
44139;SDS011;29803;51.048;4.686;2022-08-19T04:19:57;114.10;;;44.63;;
44139;SDS011;29803;51.048;4.686;2022-08-19T04:22:27;137.75;;;46.28;;
44139;SDS011;29803;51.048;4.686;2022-08-19T04:24:58;124.90;;;44.13;;
44139;SDS011;29803;51.048;4.686;2022-08-19T04:27:28;123.22;;;43.45;;
44139;SDS011;29803;51.048;4.686;2022-08-19T04:29:59;125.13;;;44.40;;
44139;SDS011;29803;51.048;4.686;2022-08-19T04:32:29;119.93;;;44.95;;
44139;SDS011;29803;51.048;4.686;2022-08-19T04:35:02;118.75;;;41.90;;
44139;SDS011;29803;51.048;4.686;2022-08-19T04:37:32;112.10;;;42.10;;
44139;SDS011;29803;51.048;4.686;2022-08-19T04:40:05;115.88;;;41.25;;
44139;SDS011;29803;51.048;4.686;2022-08-19T04:42:55;117.75;;;41.70;;
44139;SDS011;29803;51.048;4.686;2022-08-19T04:45:26;115.35;;;41.88;;
44139;SDS011;29803;51.048;4.686;2022-08-19T04:47:56;130.13;;;44.85;;
44139;SDS011;29803;51.048;4.686;2022-08-19T04:50:27;106.63;;;41.45;;
44139;SDS011;29803;51.048;4.686;2022-08-19T04:52:58;110.47;;;39.55;;
44139;SDS011;29803;51.048;4.686;2022-08-19T04:55:28;106.63;;;38.95;;
44139;SDS011;29803;51.048;4.686;2022-08-19T04:57:59;113.57;;;38.55;;
44139;SDS011;29803;51.048;4.686;2022-08-19T05:00:29;102.55;;;39.63;;
44139;SDS011;29803;51.048;4.686;2022-08-19T05:03:00;108.10;;;38.80;;
44139;SDS011;29803;51.048;4.686;2022-08-19T05:05:32;111.47;;;39.95;;
44139;SDS011;29803;51.048;4.686;2022-08-19T05:08:03;92.55;;;37.22;;
44139;SDS011;29803;51.048;4.686;2022-08-19T05:10:35;99.00;;;37.58;;
44139;SDS011;29803;51.048;4.686;2022-08-19T05:13:07;97.18;;;37.92;;
44139;SDS011;29803;51.048;4.686;2022-08-19T05:15:39;101.88;;;37.15;;
44139;SDS011;29803;51.048;4.686;2022-08-19T05:18:09;102.07;;;36.63;;
44139;SDS011;29803;51.048;4.686;2022-08-19T05:20:58;98.38;;;36.45;;
44139;SDS011;29803;51.048;4.686;2022-08-19T05:23:48;91.00;;;34.10;;
44139;SDS011;29803;51.048;4.686;2022-08-19T05:26:19;89.15;;;34.10;;
44139;SDS011;29803;51.048;4.686;2022-08-19T05:28:49;89.68;;;33.63;;
44139;SDS011;29803;51.048;4.686;2022-08-19T05:31:20;104.13;;;37.70;;
44139;SDS011;29803;51.048;4.686;2022-08-19T05:33:51;103.78;;;38.10;;
44139;SDS011;29803;51.048;4.686;2022-08-19T05:36:22;88.32;;;37.15;;
44139;SDS011;29803;51.048;4.686;2022-08-19T05:38:52;86.15;;;34.78;;
44139;SDS011;29803;51.048;4.686;2022-08-19T05:41:23;89.85;;;35.13;;
44139;SDS011;29803;51.048;4.686;2022-08-19T05:44:01;92.32;;;33.70;;
44139;SDS011;29803;51.048;4.686;2022-08-19T05:46:36;91.65;;;34.75;;
44139;SDS011;29803;51.048;4.686;2022-08-19T05:49:08;74.30;;;32.30;;
44139;SDS011;29803;51.048;4.686;2022-08-19T05:51:38;68.22;;;29.30;;
44139;SDS011;29803;51.048;4.686;2022-08-19T05:54:09;73.65;;;30.35;;
44139;SDS011;29803;51.048;4.686;2022-08-19T05:56:41;69.55;;;29.25;;
44139;SDS011;29803;51.048;4.686;2022-08-19T05:59:12;58.53;;;27.05;;
44139;SDS011;29803;51.048;4.686;2022-08-19T06:01:44;48.75;;;25.27;;
44139;SDS011;29803;51.048;4.686;2022-08-19T06:04:16;48.55;;;23.85;;
44139;SDS011;29803;51.048;4.686;2022-08-19T06:06:50;38.17;;;20.63;;
44139;SDS011;29803;51.048;4.686;2022-08-19T06:09:22;38.08;;;20.45;;
44139;SDS011;29803;51.048;4.686;2022-08-19T06:11:54;31.65;;;18.95;;
44139;SDS011;29803;51.048;4.686;2022-08-19T06:14:30;31.67;;;16.45;;
44139;SDS011;29803;51.048;4.686;2022-08-19T06:17:04;29.40;;;16.93;;
44139;SDS011;29803;51.048;4.686;2022-08-19T06:19:34;35.92;;;16.92;;
44139;SDS011;29803;51.048;4.686;2022-08-19T06:22:06;44.08;;;17.38;;
44139;SDS011;29803;51.048;4.686;2022-08-19T06:24:38;35.40;;;15.70;;
44139;SDS011;29803;51.048;4.686;2022-08-19T06:27:08;25.50;;;14.38;;
44139;SDS011;29803;51.048;4.686;2022-08-19T06:29:39;34.92;;;16.23;;
44139;SDS011;29803;51.048;4.686;2022-08-19T06:32:09;32.67;;;15.77;;
44139;SDS011;29803;51.048;4.686;2022-08-19T06:34:41;29.63;;;15.63;;
44139;SDS011;29803;51.048;4.686;2022-08-19T06:37:12;24.25;;;14.38;;
44139;SDS011;29803;51.048;4.686;2022-08-19T06:39:43;21.08;;;12.55;;
44139;SDS011;29803;51.048;4.686;2022-08-19T06:42:14;30.90;;;13.70;;
44139;SDS011;29803;51.048;4.686;2022-08-19T06:44:48;25.77;;;12.32;;
44139;SDS011;29803;51.048;4.686;2022-08-19T06:47:20;21.25;;;12.57;;
44139;SDS011;29803;51.048;4.686;2022-08-19T06:49:53;23.55;;;12.00;;
44139;SDS011;29803;51.048;4.686;2022-08-19T06:52:29;25.10;;;12.30;;
44139;SDS011;29803;51.048;4.686;2022-08-19T06:55:03;22.27;;;10.75;;
44139;SDS011;29803;51.048;4.686;2022-08-19T06:57:34;25.25;;;11.52;;
44139;SDS011;29803;51.048;4.686;2022-08-19T07:00:05;30.58;;;11.77;;
44139;SDS011;29803;51.048;4.686;2022-08-19T07:02:41;25.15;;;12.05;;
44139;SDS011;29803;51.048;4.686;2022-08-19T07:05:12;23.63;;;11.25;;
44139;SDS011;29803;51.048;4.686;2022-08-19T07:07:43;22.30;;;11.13;;
44139;SDS011;29803;51.048;4.686;2022-08-19T07:10:13;25.40;;;10.05;;
44139;SDS011;29803;51.048;4.686;2022-08-19T07:12:44;27.40;;;10.65;;
44139;SDS011;29803;51.048;4.686;2022-08-19T07:15:15;26.17;;;11.10;;
44139;SDS011;29803;51.048;4.686;2022-08-19T07:17:46;28.60;;;11.13;;
44139;SDS011;29803;51.048;4.686;2022-08-19T07:20:17;27.98;;;10.48;;
44139;SDS011;29803;51.048;4.686;2022-08-19T07:22:48;19.63;;;10.32;;
44139;SDS011;29803;51.048;4.686;2022-08-19T07:25:19;19.55;;;10.63;;
44139;SDS011;29803;51.048;4.686;2022-08-19T07:27:51;20.83;;;10.15;;
44139;SDS011;29803;51.048;4.686;2022-08-19T07:30:22;27.42;;;10.55;;
44139;SDS011;29803;51.048;4.686;2022-08-19T07:32:54;20.92;;;10.38;;
44139;SDS011;29803;51.048;4.686;2022-08-19T07:35:24;26.50;;;10.35;;
44139;SDS011;29803;51.048;4.686;2022-08-19T07:37:55;18.92;;;9.88;;
44139;SDS011;29803;51.048;4.686;2022-08-19T07:40:26;18.10;;;9.43;;
44139;SDS011;29803;51.048;4.686;2022-08-19T07:42:57;16.05;;;8.23;;
44139;SDS011;29803;51.048;4.686;2022-08-19T07:45:27;15.40;;;9.00;;
44139;SDS011;29803;51.048;4.686;2022-08-19T07:47:58;14.30;;;7.40;;
44139;SDS011;29803;51.048;4.686;2022-08-19T07:50:29;14.18;;;8.15;;
44139;SDS011;29803;51.048;4.686;2022-08-19T07:52:59;20.58;;;7.95;;
44139;SDS011;29803;51.048;4.686;2022-08-19T07:55:30;14.35;;;8.40;;
44139;SDS011;29803;51.048;4.686;2022-08-19T07:58:00;18.95;;;9.27;;
44139;SDS011;29803;51.048;4.686;2022-08-19T08:00:31;16.42;;;9.30;;
44139;SDS011;29803;51.048;4.686;2022-08-19T08:03:02;12.57;;;8.30;;
44139;SDS011;29803;51.048;4.686;2022-08-19T08:05:32;16.33;;;9.05;;
44139;SDS011;29803;51.048;4.686;2022-08-19T08:08:22;16.45;;;7.43;;
44139;SDS011;29803;51.048;4.686;2022-08-19T08:11:12;15.77;;;8.23;;
44139;SDS011;29803;51.048;4.686;2022-08-19T08:13:43;18.23;;;9.15;;
44139;SDS011;29803;51.048;4.686;2022-08-19T08:16:13;14.70;;;8.98;;
44139;SDS011;29803;51.048;4.686;2022-08-19T08:18:44;16.17;;;9.23;;
44139;SDS011;29803;51.048;4.686;2022-08-19T08:21:15;13.30;;;8.68;;
44139;SDS011;29803;51.048;4.686;2022-08-19T08:23:45;17.90;;;9.57;;
44139;SDS011;29803;51.048;4.686;2022-08-19T08:26:16;16.30;;;9.82;;
44139;SDS011;29803;51.048;4.686;2022-08-19T08:28:47;17.60;;;8.90;;
44139;SDS011;29803;51.048;4.686;2022-08-19T08:31:18;18.88;;;9.20;;
44139;SDS011;29803;51.048;4.686;2022-08-19T08:33:49;16.23;;;8.70;;
44139;SDS011;29803;51.048;4.686;2022-08-19T08:36:20;17.80;;;8.63;;
44139;SDS011;29803;51.048;4.686;2022-08-19T08:38:50;14.82;;;7.88;;
44139;SDS011;29803;51.048;4.686;2022-08-19T08:43:53;13.20;;;7.22;;
44139;SDS011;29803;51.048;4.686;2022-08-19T08:46:27;18.20;;;8.40;;
44139;SDS011;29803;51.048;4.686;2022-08-19T08:52:04;10.60;;;6.50;;
44139;SDS011;29803;51.048;4.686;2022-08-19T08:54:39;13.77;;;6.97;;
44139;SDS011;29803;51.048;4.686;2022-08-19T08:57:14;13.57;;;7.40;;
44139;SDS011;29803;51.048;4.686;2022-08-19T08:59:49;17.02;;;8.00;;
44139;SDS011;29803;51.048;4.686;2022-08-19T09:02:21;15.63;;;7.35;;
44139;SDS011;29803;51.048;4.686;2022-08-19T09:04:54;11.15;;;6.70;;
44139;SDS011;29803;51.048;4.686;2022-08-19T09:07:27;11.05;;;6.78;;
44139;SDS011;29803;51.048;4.686;2022-08-19T09:10:22;15.80;;;6.40;;
44139;SDS011;29803;51.048;4.686;2022-08-19T09:13:06;13.18;;;6.63;;
44139;SDS011;29803;51.048;4.686;2022-08-19T09:18:19;12.20;;;6.75;;
44139;SDS011;29803;51.048;4.686;2022-08-19T09:20:49;11.45;;;6.32;;
44139;SDS011;29803;51.048;4.686;2022-08-19T09:23:20;9.38;;;5.32;;
44139;SDS011;29803;51.048;4.686;2022-08-19T09:25:51;12.48;;;5.97;;
44139;SDS011;29803;51.048;4.686;2022-08-19T09:28:22;10.50;;;6.30;;
44139;SDS011;29803;51.048;4.686;2022-08-19T09:30:53;10.18;;;5.85;;
44139;SDS011;29803;51.048;4.686;2022-08-19T09:33:23;10.38;;;5.20;;
44139;SDS011;29803;51.048;4.686;2022-08-19T09:38:44;12.88;;;5.47;;
44139;SDS011;29803;51.048;4.686;2022-08-19T09:41:16;12.82;;;5.25;;
44139;SDS011;29803;51.048;4.686;2022-08-19T09:43:50;13.73;;;6.05;;
44139;SDS011;29803;51.048;4.686;2022-08-19T09:46:23;18.13;;;6.45;;
44139;SDS011;29803;51.048;4.686;2022-08-19T09:48:57;11.10;;;5.50;;
44139;SDS011;29803;51.048;4.686;2022-08-19T09:51:30;10.60;;;4.65;;
44139;SDS011;29803;51.048;4.686;2022-08-19T09:54:01;15.73;;;5.13;;
44139;SDS011;29803;51.048;4.686;2022-08-19T09:56:32;12.63;;;4.85;;
44139;SDS011;29803;51.048;4.686;2022-08-19T09:59:03;17.52;;;5.30;;
44139;SDS011;29803;51.048;4.686;2022-08-19T10:01:34;12.90;;;5.75;;
44139;SDS011;29803;51.048;4.686;2022-08-19T10:04:05;7.95;;;4.93;;
44139;SDS011;29803;51.048;4.686;2022-08-19T10:06:51;10.35;;;4.65;;
44139;SDS011;29803;51.048;4.686;2022-08-19T10:09:21;10.18;;;5.60;;
44139;SDS011;29803;51.048;4.686;2022-08-19T10:11:52;12.15;;;5.22;;
44139;SDS011;29803;51.048;4.686;2022-08-19T10:14:22;10.18;;;5.65;;
44139;SDS011;29803;51.048;4.686;2022-08-19T10:16:53;9.00;;;6.05;;
44139;SDS011;29803;51.048;4.686;2022-08-19T10:19:23;8.18;;;5.93;;
44139;SDS011;29803;51.048;4.686;2022-08-19T10:21:54;8.25;;;5.20;;
44139;SDS011;29803;51.048;4.686;2022-08-19T10:24:24;10.88;;;4.72;;
44139;SDS011;29803;51.048;4.686;2022-08-19T10:26:57;10.73;;;5.05;;
44139;SDS011;29803;51.048;4.686;2022-08-19T10:29:27;11.35;;;5.45;;
44139;SDS011;29803;51.048;4.686;2022-08-19T10:31:59;9.63;;;5.50;;
44139;SDS011;29803;51.048;4.686;2022-08-19T10:34:31;10.07;;;4.88;;
44139;SDS011;29803;51.048;4.686;2022-08-19T10:37:02;11.93;;;5.55;;
44139;SDS011;29803;51.048;4.686;2022-08-19T10:39:35;9.10;;;5.50;;
44139;SDS011;29803;51.048;4.686;2022-08-19T10:42:06;9.40;;;5.60;;
44139;SDS011;29803;51.048;4.686;2022-08-19T10:44:40;11.10;;;5.93;;
44139;SDS011;29803;51.048;4.686;2022-08-19T10:47:11;10.38;;;5.35;;
44139;SDS011;29803;51.048;4.686;2022-08-19T10:49:42;10.38;;;4.93;;
44139;SDS011;29803;51.048;4.686;2022-08-19T10:52:45;14.13;;;6.05;;
44139;SDS011;29803;51.048;4.686;2022-08-19T10:55:20;12.18;;;5.68;;
44139;SDS011;29803;51.048;4.686;2022-08-19T10:58:12;9.52;;;5.68;;
44139;SDS011;29803;51.048;4.686;2022-08-19T11:00:50;14.38;;;6.40;;
44139;SDS011;29803;51.048;4.686;2022-08-19T11:03:23;10.45;;;5.45;;
44139;SDS011;29803;51.048;4.686;2022-08-19T11:05:57;9.63;;;5.53;;
44139;SDS011;29803;51.048;4.686;2022-08-19T11:08:42;11.55;;;5.38;;
44139;SDS011;29803;51.048;4.686;2022-08-19T11:11:14;9.68;;;5.32;;
44139;SDS011;29803;51.048;4.686;2022-08-19T11:13:46;7.95;;;5.10;;
44139;SDS011;29803;51.048;4.686;2022-08-19T11:16:18;12.07;;;5.75;;
44139;SDS011;29803;51.048;4.686;2022-08-19T11:18:53;11.60;;;6.05;;
44139;SDS011;29803;51.048;4.686;2022-08-19T11:21:30;10.85;;;5.28;;
44139;SDS011;29803;51.048;4.686;2022-08-19T11:24:03;8.52;;;4.80;;
44139;SDS011;29803;51.048;4.686;2022-08-19T11:26:37;9.57;;;5.47;;
44139;SDS011;29803;51.048;4.686;2022-08-19T11:29:11;9.40;;;5.07;;
44139;SDS011;29803;51.048;4.686;2022-08-19T11:31:44;11.23;;;4.82;;
44139;SDS011;29803;51.048;4.686;2022-08-19T11:34:18;7.72;;;4.20;;
44139;SDS011;29803;51.048;4.686;2022-08-19T11:36:51;8.45;;;3.58;;
44139;SDS011;29803;51.048;4.686;2022-08-19T11:39:22;5.20;;;3.70;;
44139;SDS011;29803;51.048;4.686;2022-08-19T11:41:52;6.40;;;3.78;;
44139;SDS011;29803;51.048;4.686;2022-08-19T11:44:23;9.48;;;4.60;;
44139;SDS011;29803;51.048;4.686;2022-08-19T11:46:54;7.30;;;3.88;;
44139;SDS011;29803;51.048;4.686;2022-08-19T11:49:25;6.93;;;4.28;;
44139;SDS011;29803;51.048;4.686;2022-08-19T11:51:56;9.43;;;4.57;;
44139;SDS011;29803;51.048;4.686;2022-08-19T11:54:28;9.77;;;4.70;;
44139;SDS011;29803;51.048;4.686;2022-08-19T11:56:58;9.93;;;4.47;;
44139;SDS011;29803;51.048;4.686;2022-08-19T11:59:31;11.43;;;4.32;;
44139;SDS011;29803;51.048;4.686;2022-08-19T12:02:01;8.18;;;4.22;;
44139;SDS011;29803;51.048;4.686;2022-08-19T12:04:32;9.23;;;4.25;;
44139;SDS011;29803;51.048;4.686;2022-08-19T12:07:02;8.93;;;4.20;;
44139;SDS011;29803;51.048;4.686;2022-08-19T12:09:33;9.93;;;4.55;;
44139;SDS011;29803;51.048;4.686;2022-08-19T12:12:04;7.45;;;3.72;;
44139;SDS011;29803;51.048;4.686;2022-08-19T12:14:35;8.82;;;4.28;;
44139;SDS011;29803;51.048;4.686;2022-08-19T12:17:06;14.93;;;4.80;;
44139;SDS011;29803;51.048;4.686;2022-08-19T12:19:38;9.23;;;4.35;;
44139;SDS011;29803;51.048;4.686;2022-08-19T12:22:09;6.78;;;4.45;;
44139;SDS011;29803;51.048;4.686;2022-08-19T12:24:40;8.02;;;4.45;;
44139;SDS011;29803;51.048;4.686;2022-08-19T12:27:10;7.22;;;4.40;;
44139;SDS011;29803;51.048;4.686;2022-08-19T12:29:41;7.03;;;3.72;;
44139;SDS011;29803;51.048;4.686;2022-08-19T12:32:11;5.18;;;3.10;;
44139;SDS011;29803;51.048;4.686;2022-08-19T12:34:42;8.15;;;4.00;;
44139;SDS011;29803;51.048;4.686;2022-08-19T12:37:13;14.48;;;4.45;;
44139;SDS011;29803;51.048;4.686;2022-08-19T12:39:43;5.18;;;2.88;;
44139;SDS011;29803;51.048;4.686;2022-08-19T12:42:14;5.55;;;3.08;;
44139;SDS011;29803;51.048;4.686;2022-08-19T12:44:45;7.20;;;3.22;;
44139;SDS011;29803;51.048;4.686;2022-08-19T12:47:15;6.38;;;3.50;;
44139;SDS011;29803;51.048;4.686;2022-08-19T12:49:47;5.65;;;2.95;;
44139;SDS011;29803;51.048;4.686;2022-08-19T12:52:19;4.47;;;3.15;;
44139;SDS011;29803;51.048;4.686;2022-08-19T12:54:51;5.22;;;3.05;;
44139;SDS011;29803;51.048;4.686;2022-08-19T12:57:23;4.55;;;3.22;;
44139;SDS011;29803;51.048;4.686;2022-08-19T12:59:56;8.45;;;2.58;;
44139;SDS011;29803;51.048;4.686;2022-08-19T13:02:26;5.78;;;2.53;;
44139;SDS011;29803;51.048;4.686;2022-08-19T13:04:57;4.32;;;2.78;;
44139;SDS011;29803;51.048;4.686;2022-08-19T13:07:28;6.70;;;2.95;;
44139;SDS011;29803;51.048;4.686;2022-08-19T13:10:00;5.10;;;2.63;;
44139;SDS011;29803;51.048;4.686;2022-08-19T13:12:31;6.75;;;3.65;;
44139;SDS011;29803;51.048;4.686;2022-08-19T13:15:02;4.22;;;2.80;;
44139;SDS011;29803;51.048;4.686;2022-08-19T13:17:33;10.35;;;2.80;;
44139;SDS011;29803;51.048;4.686;2022-08-19T13:20:04;5.78;;;3.10;;
44139;SDS011;29803;51.048;4.686;2022-08-19T13:22:37;10.10;;;4.22;;
44139;SDS011;29803;51.048;4.686;2022-08-19T13:25:08;6.68;;;3.80;;
44139;SDS011;29803;51.048;4.686;2022-08-19T13:27:39;7.47;;;3.97;;
44139;SDS011;29803;51.048;4.686;2022-08-19T13:30:11;8.05;;;3.80;;
44139;SDS011;29803;51.048;4.686;2022-08-19T13:33:01;8.05;;;3.90;;
44139;SDS011;29803;51.048;4.686;2022-08-19T13:35:43;8.65;;;4.72;;
44139;SDS011;29803;51.048;4.686;2022-08-19T13:38:18;6.57;;;4.15;;
44139;SDS011;29803;51.048;4.686;2022-08-19T13:40:51;8.00;;;3.95;;
44139;SDS011;29803;51.048;4.686;2022-08-19T13:43:23;7.03;;;4.13;;
44139;SDS011;29803;51.048;4.686;2022-08-19T13:45:56;5.73;;;3.57;;
44139;SDS011;29803;51.048;4.686;2022-08-19T13:48:27;5.55;;;4.18;;
44139;SDS011;29803;51.048;4.686;2022-08-19T13:50:59;11.90;;;4.60;;
44139;SDS011;29803;51.048;4.686;2022-08-19T13:53:29;8.60;;;4.70;;
44139;SDS011;29803;51.048;4.686;2022-08-19T13:56:00;8.57;;;4.35;;
44139;SDS011;29803;51.048;4.686;2022-08-19T13:58:34;13.95;;;4.38;;
44139;SDS011;29803;51.048;4.686;2022-08-19T14:01:05;9.45;;;3.63;;
44139;SDS011;29803;51.048;4.686;2022-08-19T14:03:37;6.90;;;4.00;;
44139;SDS011;29803;51.048;4.686;2022-08-19T14:06:08;6.60;;;4.35;;
44139;SDS011;29803;51.048;4.686;2022-08-19T14:08:38;4.57;;;3.38;;
44139;SDS011;29803;51.048;4.686;2022-08-19T14:11:11;5.22;;;3.83;;
44139;SDS011;29803;51.048;4.686;2022-08-19T14:13:42;6.43;;;4.30;;
44139;SDS011;29803;51.048;4.686;2022-08-19T14:16:13;4.88;;;3.63;;
44139;SDS011;29803;51.048;4.686;2022-08-19T14:18:44;5.97;;;3.20;;
44139;SDS011;29803;51.048;4.686;2022-08-19T14:21:16;7.43;;;3.22;;
44139;SDS011;29803;51.048;4.686;2022-08-19T14:26:21;3.33;;;2.10;;
44139;SDS011;29803;51.048;4.686;2022-08-19T14:28:52;3.15;;;2.03;;
44139;SDS011;29803;51.048;4.686;2022-08-19T14:31:23;5.88;;;2.13;;
44139;SDS011;29803;51.048;4.686;2022-08-19T14:33:54;2.85;;;2.25;;
44139;SDS011;29803;51.048;4.686;2022-08-19T14:36:24;4.85;;;2.30;;
44139;SDS011;29803;51.048;4.686;2022-08-19T14:38:55;4.32;;;2.35;;
44139;SDS011;29803;51.048;4.686;2022-08-19T14:41:27;7.07;;;2.70;;
44139;SDS011;29803;51.048;4.686;2022-08-19T14:43:58;5.05;;;2.38;;
44139;SDS011;29803;51.048;4.686;2022-08-19T14:46:28;2.70;;;1.95;;
44139;SDS011;29803;51.048;4.686;2022-08-19T14:48:59;5.07;;;2.13;;
44139;SDS011;29803;51.048;4.686;2022-08-19T14:51:29;2.80;;;2.15;;
44139;SDS011;29803;51.048;4.686;2022-08-19T14:54:00;4.40;;;1.50;;
44139;SDS011;29803;51.048;4.686;2022-08-19T14:56:30;2.30;;;1.45;;
44139;SDS011;29803;51.048;4.686;2022-08-19T14:59:01;4.05;;;1.50;;
44139;SDS011;29803;51.048;4.686;2022-08-19T15:01:32;3.65;;;1.50;;
44139;SDS011;29803;51.048;4.686;2022-08-19T15:04:02;3.72;;;1.83;;
44139;SDS011;29803;51.048;4.686;2022-08-19T15:06:33;3.40;;;1.60;;
44139;SDS011;29803;51.048;4.686;2022-08-19T15:09:04;3.25;;;1.20;;
44139;SDS011;29803;51.048;4.686;2022-08-19T15:11:35;2.33;;;1.70;;
44139;SDS011;29803;51.048;4.686;2022-08-19T15:14:05;3.28;;;1.77;;
44139;SDS011;29803;51.048;4.686;2022-08-19T15:16:36;2.63;;;1.58;;